createdAt,value
2023-05-01T00:02:02.515Z,87.59
2023-05-01T00:04:29.522Z,88.06
2023-05-01T00:06:56.349Z,88.02
2023-05-01T00:09:23.215Z,88.87
2023-05-01T00:11:50.127Z,88.95
2023-05-01T00:14:16.954Z,88.26
2023-05-01T00:16:43.823Z,87.50
2023-05-01T00:19:12.505Z,87.58
2023-05-01T00:21:39.390Z,86.85
2023-05-01T00:24:06.373Z,86.11
2023-05-01T00:26:33.240Z,86.37
2023-05-01T00:29:00.080Z,87.71
2023-05-01T00:31:27.131Z,86.98
2023-05-01T00:33:54.098Z,87.15
2023-05-01T00:36:21.125Z,87.03
2023-05-01T00:38:48.001Z,87.41
2023-05-01T00:41:14.844Z,87.79
2023-05-01T00:43:41.679Z,87.06
2023-05-01T00:46:10.189Z,86.50
2023-05-01T00:48:37.863Z,87.50
2023-05-01T00:51:09.028Z,87.40
2023-05-01T00:53:36.303Z,88.15
2023-05-01T00:56:04.390Z,86.92
2023-05-01T00:58:31.337Z,87.99
2023-05-01T01:00:58.656Z,87.68
2023-05-01T01:03:25.593Z,88.39
2023-05-01T01:06:17.429Z,88.29
2023-05-01T01:08:55.191Z,86.55
2023-05-01T01:11:35.906Z,86.42
2023-05-01T01:14:12.450Z,85.49
2023-05-01T01:16:54.307Z,86.37
2023-05-01T01:19:33.719Z,87.36
2023-05-01T01:22:08.943Z,86.26
2023-05-01T01:25:06.742Z,86.69
2023-05-01T01:28:23.163Z,87.60
2023-05-01T01:31:17.746Z,87.66
2023-05-01T01:33:59.502Z,88.54
2023-05-01T01:36:49.818Z,89.33
2023-05-01T01:39:29.616Z,88.96
2023-05-01T01:41:59.862Z,90.25
2023-05-01T01:44:37.934Z,91.20
2023-05-01T01:47:09.091Z,90.44
2023-05-01T01:49:40.097Z,89.56
2023-05-01T01:52:08.220Z,89.14
2023-05-01T01:54:43.852Z,88.96
2023-05-01T01:57:13.332Z,89.18
2023-05-01T01:59:42.465Z,87.74
2023-05-01T02:02:10.190Z,88.88
2023-05-01T02:04:39.523Z,89.37
2023-05-01T02:07:07.479Z,88.94
2023-05-01T02:09:35.688Z,89.56
2023-05-01T02:12:05.949Z,90.52
2023-05-01T02:14:34.434Z,90.09
2023-05-01T02:17:02.740Z,89.70
2023-05-01T02:19:32.430Z,90.45
2023-05-01T02:22:00.209Z,89.59
2023-05-01T02:24:29.838Z,89.84
2023-05-01T02:27:08.756Z,88.94
2023-05-01T02:29:35.844Z,90.01
2023-05-01T02:32:03.145Z,89.45
2023-05-01T02:34:30.114Z,89.17
2023-05-01T02:36:56.965Z,89.33
2023-05-01T02:39:23.898Z,89.65
2023-05-01T02:41:55.994Z,89.49
2023-05-01T02:44:25.478Z,89.28
2023-05-01T02:46:53.820Z,90.07
2023-05-01T02:49:21.763Z,89.43
2023-05-01T02:51:49.124Z,89.18
2023-05-01T02:54:16.586Z,90.13
2023-05-01T02:56:43.648Z,90.13
2023-05-01T02:59:10.462Z,89.88
2023-05-01T03:01:37.359Z,90.17
2023-05-01T03:04:04.558Z,90.04
2023-05-01T03:06:31.526Z,90.16
2023-05-01T03:08:58.441Z,89.42
2023-05-01T03:11:25.275Z,90.55
2023-05-01T03:13:52.231Z,90.81
2023-05-01T03:16:19.163Z,91.86
2023-05-01T03:18:46.137Z,90.17
2023-05-01T03:21:13.106Z,90.12
2023-05-01T03:23:39.939Z,90.93
2023-05-01T03:26:07.888Z,91.02
2023-05-01T03:28:34.808Z,91.14
2023-05-01T03:31:01.843Z,91.40
2023-05-01T03:33:28.731Z,91.83
2023-05-01T03:36:06.246Z,92.18
2023-05-01T03:38:33.872Z,94.63
2023-05-01T03:41:00.711Z,94.58
2023-05-01T03:43:27.659Z,95.24
2023-05-01T03:45:54.507Z,95.03
2023-05-01T03:48:22.444Z,96.02
2023-05-01T03:50:49.392Z,96.83
2023-05-01T03:53:16.766Z,95.64
2023-05-01T03:55:44.016Z,94.78
2023-05-01T03:58:11.035Z,94.21
2023-05-01T04:00:38.613Z,93.50
2023-05-01T04:03:06.146Z,94.83
2023-05-01T04:05:33.736Z,94.52
2023-05-01T04:08:00.763Z,94.92
2023-05-01T04:10:27.645Z,95.30
2023-05-01T04:12:54.507Z,96.35
2023-05-01T04:15:22.862Z,95.31
2023-05-01T04:17:49.976Z,95.13
2023-05-01T04:20:17.208Z,94.87
2023-05-01T04:22:44.017Z,94.86
2023-05-01T04:25:11.180Z,95.31
2023-05-01T04:27:38.019Z,96.61
2023-05-01T04:30:05.353Z,96.22
2023-05-01T04:32:32.232Z,95.82
2023-05-01T04:34:59.911Z,95.98
2023-05-01T04:37:26.778Z,95.51
2023-05-01T04:39:54.359Z,96.89
2023-05-01T04:42:21.574Z,96.60
2023-05-01T04:44:48.587Z,96.51
2023-05-01T04:47:15.494Z,95.87
2023-05-01T04:49:42.326Z,94.59
2023-05-01T04:52:09.176Z,94.10
2023-05-01T04:54:36.206Z,94.75
2023-05-01T04:57:03.504Z,94.87
2023-05-01T04:59:30.394Z,97.00
2023-05-01T05:01:57.388Z,97.27
2023-05-01T05:04:24.824Z,96.76
2023-05-01T05:06:51.721Z,96.71
2023-05-01T05:09:20.193Z,97.48
2023-05-01T05:11:47.295Z,96.51
2023-05-01T05:14:14.121Z,97.48
2023-05-01T05:16:41.048Z,97.25
2023-05-01T05:19:07.934Z,97.46
2023-05-01T05:21:35.568Z,96.49
2023-05-01T05:24:02.379Z,97.01
2023-05-01T05:26:29.328Z,97.38
2023-05-01T05:28:56.175Z,97.03
2023-05-01T05:31:23.793Z,95.99
2023-05-01T05:33:50.671Z,95.24
2023-05-01T05:36:17.555Z,96.06
2023-05-01T05:38:44.433Z,96.54
2023-05-01T05:41:11.745Z,96.42
2023-05-01T05:43:38.626Z,95.18
2023-05-01T05:46:05.528Z,93.72
2023-05-01T05:48:32.429Z,94.10
2023-05-01T05:50:59.345Z,95.20
2023-05-01T05:53:26.667Z,95.40
2023-05-01T05:55:53.781Z,94.07
2023-05-01T05:58:20.610Z,92.91
2023-05-01T06:00:48.607Z,92.54
2023-05-01T06:03:16.475Z,91.93
2023-05-01T06:05:44.393Z,91.74
2023-05-01T06:08:12.171Z,92.27
2023-05-01T06:10:45.422Z,91.67
2023-05-01T06:13:14.764Z,91.85
2023-05-01T06:15:42.044Z,91.89
2023-05-01T06:18:09.234Z,92.06
2023-05-01T06:20:36.845Z,89.80
2023-05-01T06:23:03.885Z,89.30
2023-05-01T06:25:31.226Z,87.82
2023-05-01T06:27:58.156Z,87.55
2023-05-01T06:30:25.109Z,86.86
2023-05-01T06:32:51.976Z,85.96
2023-05-01T06:35:19.205Z,86.31
2023-05-01T06:37:46.351Z,86.63
2023-05-01T06:40:13.315Z,86.79
2023-05-01T06:42:40.972Z,85.87
2023-05-01T06:45:08.669Z,85.70
2023-05-01T06:47:36.099Z,84.85
2023-05-01T06:50:05.800Z,84.94
2023-05-01T06:52:32.808Z,84.51
2023-05-01T06:54:59.731Z,84.90
2023-05-01T06:57:26.634Z,86.35
2023-05-01T06:59:54.390Z,85.87
2023-05-01T07:02:21.894Z,85.36
2023-05-01T07:04:48.849Z,84.41
2023-05-01T07:07:15.718Z,84.61
2023-05-01T07:09:42.575Z,83.11
2023-05-01T07:12:09.507Z,82.81
2023-05-01T07:14:36.420Z,81.19
2023-05-01T07:17:04.025Z,79.48
2023-05-01T07:19:30.880Z,79.30
2023-05-01T07:21:57.797Z,79.30
2023-05-01T07:24:24.738Z,79.32
2023-05-01T07:26:52.114Z,78.35
2023-05-01T07:29:19.080Z,76.50
2023-05-01T07:31:46.600Z,78.04
2023-05-01T07:34:13.895Z,75.88
2023-05-01T07:36:41.789Z,74.80
2023-05-01T07:39:08.727Z,75.04
2023-05-01T07:41:35.616Z,77.50
2023-05-01T07:44:02.816Z,75.61
2023-05-01T07:46:29.941Z,73.87
2023-05-01T07:48:57.049Z,75.69
2023-05-01T07:51:24.137Z,74.48
2023-05-01T07:53:51.600Z,71.56
2023-05-01T07:56:18.531Z,69.08
2023-05-01T07:58:45.591Z,69.33
2023-05-01T08:01:12.506Z,71.45
2023-05-01T08:03:39.540Z,69.08
2023-05-01T08:06:07.136Z,68.27
2023-05-01T08:08:34.115Z,67.53
2023-05-01T08:11:01.058Z,67.64
2023-05-01T08:13:27.901Z,66.87
2023-05-01T08:15:54.901Z,66.58
2023-05-01T08:18:21.783Z,65.63
2023-05-01T08:20:49.161Z,65.99
2023-05-01T08:23:17.566Z,66.63
2023-05-01T08:25:51.079Z,67.96
2023-05-01T08:28:21.560Z,67.28
2023-05-01T08:30:49.627Z,66.20
2023-05-01T08:33:16.640Z,65.26
2023-05-01T08:35:43.893Z,66.54
2023-05-01T08:38:12.069Z,64.42
2023-05-01T08:40:41.305Z,63.61
2023-05-01T08:43:08.474Z,63.33
2023-05-01T08:45:38.047Z,65.91
2023-05-01T08:48:08.148Z,63.07
2023-05-01T08:50:38.321Z,63.47
2023-05-01T08:53:06.605Z,62.79
2023-05-01T08:55:35.611Z,61.69
2023-05-01T08:58:04.467Z,63.19
2023-05-01T09:00:34.541Z,62.33
2023-05-01T09:03:05.451Z,59.76
2023-05-01T09:05:33.787Z,60.01
2023-05-01T09:08:01.411Z,61.95
2023-05-01T09:10:31.766Z,58.01
2023-05-01T09:13:07.222Z,58.55
2023-05-01T09:15:34.288Z,58.59
2023-05-01T09:18:03.610Z,59.05
2023-05-01T09:20:32.699Z,59.55
2023-05-01T09:23:00.311Z,60.12
2023-05-01T09:25:27.310Z,60.64
2023-05-01T09:27:55.327Z,61.53
2023-05-01T09:30:36.772Z,61.39
2023-05-01T09:33:12.076Z,64.04
2023-05-01T09:35:56.309Z,65.32
2023-05-01T09:38:25.969Z,68.57
2023-05-01T09:40:56.898Z,67.18
2023-05-01T09:43:28.913Z,68.80
2023-05-01T09:46:10.880Z,67.65
2023-05-01T09:48:38.721Z,72.75
2023-05-01T09:51:28.494Z,75.47
2023-05-01T09:53:58.288Z,78.29
2023-05-01T09:56:31.583Z,83.39
2023-05-01T09:59:15.368Z,85.47
2023-05-01T10:01:46.630Z,83.07
2023-05-01T10:04:14.364Z,84.02
2023-05-01T10:06:41.750Z,86.44
2023-05-01T10:09:17.733Z,89.93
2023-05-01T10:11:53.877Z,89.48
2023-05-01T10:14:21.554Z,88.20
2023-05-01T10:16:49.789Z,89.50
2023-05-01T10:19:21.266Z,92.16
2023-05-01T10:21:48.240Z,91.99
2023-05-01T10:24:17.405Z,93.72
2023-05-01T10:26:45.054Z,92.81
2023-05-01T10:29:13.031Z,91.82
2023-05-01T10:31:42.245Z,87.73
2023-05-01T10:34:11.407Z,88.42
2023-05-01T10:36:44.080Z,86.75
2023-05-01T10:39:34.437Z,90.14
2023-05-01T10:42:08.779Z,87.77
2023-05-01T10:44:35.733Z,87.93
2023-05-01T10:47:34.962Z,85.18
2023-05-01T10:50:16.082Z,85.13
2023-05-01T10:53:14.635Z,87.78
2023-05-01T10:55:49.580Z,85.24
2023-05-01T10:58:41.207Z,79.29
2023-05-01T11:01:30.332Z,77.47
2023-05-01T11:03:59.273Z,74.12
2023-05-01T11:06:27.034Z,75.06
2023-05-01T11:08:55.076Z,72.79
2023-05-01T11:11:21.996Z,71.63
2023-05-01T11:14:00.020Z,74.14
2023-05-01T11:16:42.410Z,72.43
2023-05-01T11:19:12.410Z,68.51
2023-05-01T11:21:40.816Z,67.31
2023-05-01T11:24:08.298Z,69.30
2023-05-01T11:26:42.888Z,68.02
2023-05-01T11:29:11.435Z,67.11
2023-05-01T11:31:39.659Z,65.13
2023-05-01T11:34:07.317Z,66.94
2023-05-01T11:36:54.601Z,65.06
2023-05-01T11:39:22.345Z,61.17
2023-05-01T11:41:49.308Z,58.20
2023-05-01T11:44:18.043Z,58.03
2023-05-01T11:46:45.122Z,60.05
2023-05-01T11:49:12.278Z,58.76
2023-05-01T11:51:39.335Z,56.14
2023-05-01T11:54:12.569Z,55.10
2023-05-01T11:56:43.597Z,57.96
2023-05-01T11:59:17.048Z,59.50
2023-05-01T12:01:46.517Z,57.29
2023-05-01T12:04:23.929Z,57.56
2023-05-01T12:06:51.511Z,59.32
2023-05-01T12:09:23.163Z,60.23
2023-05-01T12:11:53.461Z,61.28
2023-05-01T12:14:22.283Z,61.83
2023-05-01T12:16:49.796Z,62.45
2023-05-01T12:19:18.302Z,62.78
2023-05-01T12:21:45.282Z,64.18
2023-05-01T12:24:17.546Z,63.44
2023-05-01T12:26:46.435Z,64.96
2023-05-01T12:29:13.854Z,63.32
2023-05-01T12:31:48.687Z,63.45
2023-05-01T12:34:15.797Z,63.01
2023-05-01T12:36:42.871Z,66.68
2023-05-01T12:39:13.178Z,67.26
2023-05-01T12:41:49.362Z,66.35
2023-05-01T12:44:22.611Z,65.65
2023-05-01T12:46:55.859Z,66.49
2023-05-01T12:49:23.905Z,66.65
2023-05-01T12:51:53.161Z,67.38
2023-05-01T12:54:39.136Z,64.49
2023-05-01T12:57:11.517Z,66.82
2023-05-01T12:59:40.010Z,63.54
2023-05-01T13:02:12.862Z,62.69
2023-05-01T13:04:40.299Z,61.66
2023-05-01T13:07:17.609Z,61.63
2023-05-01T13:09:59.299Z,61.20
2023-05-01T13:12:27.859Z,59.65
2023-05-01T13:14:55.586Z,59.40
2023-05-01T13:17:25.954Z,60.08
2023-05-01T13:20:01.404Z,59.47
2023-05-01T13:22:48.803Z,57.86
2023-05-01T13:25:19.255Z,58.16
2023-05-01T13:27:51.061Z,57.67
2023-05-01T13:30:22.282Z,58.46
2023-05-01T13:32:49.782Z,57.93
2023-05-01T13:35:27.162Z,56.97
2023-05-01T13:37:54.726Z,58.01
2023-05-01T13:40:22.383Z,57.74
2023-05-01T13:42:53.168Z,56.63
2023-05-01T13:45:21.601Z,55.88
2023-05-01T13:47:50.679Z,56.18
2023-05-01T13:50:18.279Z,55.60
2023-05-01T13:52:45.801Z,57.48
2023-05-01T13:55:13.889Z,57.08
2023-05-01T13:57:42.462Z,55.14
2023-05-01T14:00:17.872Z,54.51
2023-05-01T14:02:49.245Z,54.04
2023-05-01T14:05:17.006Z,53.26
2023-05-01T14:07:58.676Z,54.71
2023-05-01T14:10:28.888Z,53.14
2023-05-01T14:12:58.898Z,51.88
2023-05-01T14:15:26.142Z,51.39
2023-05-01T14:17:53.332Z,50.88
2023-05-01T14:20:20.405Z,49.27
2023-05-01T14:22:51.875Z,47.52
2023-05-01T14:25:34.223Z,45.50
2023-05-01T14:28:05.885Z,45.75
2023-05-01T14:30:38.559Z,46.22
2023-05-01T14:33:13.257Z,47.97
2023-05-01T14:35:53.609Z,46.49
2023-05-01T14:38:22.288Z,46.70
2023-05-01T14:40:49.185Z,47.47
2023-05-01T14:43:22.055Z,47.32
2023-05-01T14:45:52.953Z,47.03
2023-05-01T14:48:26.063Z,44.91
2023-05-01T14:50:54.950Z,45.90
2023-05-01T14:53:22.017Z,46.08
2023-05-01T14:55:51.732Z,45.37
2023-05-01T14:58:18.575Z,44.70
2023-05-01T15:00:45.487Z,43.76
2023-05-01T15:03:12.462Z,45.20
2023-05-01T15:05:41.962Z,44.18
2023-05-01T15:08:09.641Z,44.58
2023-05-01T15:10:37.677Z,44.68
2023-05-01T15:13:04.564Z,43.81
2023-05-01T15:15:31.426Z,44.71
2023-05-01T15:17:58.342Z,44.05
2023-05-01T15:20:25.214Z,44.95
2023-05-01T15:22:52.065Z,46.27
2023-05-01T15:25:19.159Z,48.38
2023-05-01T15:27:46.490Z,51.87
2023-05-01T15:30:15.324Z,55.18
2023-05-01T15:32:42.543Z,54.90
2023-05-01T15:35:09.770Z,57.17
2023-05-01T15:37:36.688Z,58.86
2023-05-01T15:40:04.543Z,60.76
2023-05-01T15:42:31.624Z,61.00
2023-05-01T15:44:58.836Z,63.23
2023-05-01T15:47:26.184Z,62.86
2023-05-01T15:49:53.954Z,64.04
2023-05-01T15:52:20.860Z,62.99
2023-05-01T15:54:47.753Z,63.62
2023-05-01T15:57:17.978Z,64.41
2023-05-01T15:59:45.344Z,64.30
2023-05-01T16:02:12.568Z,65.24
2023-05-01T16:04:39.670Z,68.11
2023-05-01T16:07:09.017Z,67.56
2023-05-01T16:09:35.967Z,68.04
2023-05-01T16:12:03.504Z,69.60
2023-05-01T16:14:31.301Z,69.35
2023-05-01T16:16:58.443Z,71.72
2023-05-01T16:19:25.577Z,73.70
2023-05-01T16:21:52.522Z,74.99
2023-05-01T16:24:19.596Z,77.48
2023-05-01T16:26:46.680Z,77.24
2023-05-01T16:29:13.618Z,75.75
2023-05-01T16:31:47.742Z,76.88
2023-05-01T16:34:20.038Z,77.97
2023-05-01T16:36:47.211Z,81.38
2023-05-01T16:39:19.169Z,81.52
2023-05-01T16:41:48.708Z,82.53
2023-05-01T16:44:17.343Z,81.27
2023-05-01T16:46:58.846Z,81.74
2023-05-01T16:49:29.931Z,84.34
2023-05-01T16:51:58.487Z,85.63
2023-05-01T16:54:32.416Z,83.16
2023-05-01T16:56:59.698Z,84.97
2023-05-01T16:59:28.229Z,86.14
2023-05-01T17:01:55.349Z,88.03
2023-05-01T17:04:22.498Z,85.73
2023-05-01T17:06:49.565Z,86.96
2023-05-01T17:09:16.548Z,87.81
2023-05-01T17:11:43.420Z,87.26
2023-05-01T17:14:12.650Z,86.66
2023-05-01T17:16:40.535Z,85.13
2023-05-01T17:19:09.946Z,84.23
2023-05-01T17:21:36.902Z,87.01
2023-05-01T17:24:04.696Z,86.02
2023-05-01T17:26:31.662Z,87.81
2023-05-01T17:28:59.078Z,87.46
2023-05-01T17:31:27.021Z,88.25
2023-05-01T17:33:53.903Z,86.73
2023-05-01T17:36:21.479Z,87.64
2023-05-01T17:38:48.330Z,87.87
2023-05-01T17:41:15.596Z,87.70
2023-05-01T17:43:44.890Z,86.76
2023-05-01T17:46:14.251Z,88.44
2023-05-01T17:48:44.015Z,87.46
2023-05-01T17:51:10.966Z,87.37
2023-05-01T17:53:37.969Z,87.25
2023-05-01T17:56:04.864Z,87.16
2023-05-01T17:58:31.721Z,88.38
2023-05-01T18:00:59.062Z,88.09
2023-05-01T18:03:26.135Z,88.45
2023-05-01T18:05:53.108Z,88.25
2023-05-01T18:08:19.935Z,89.01
2023-05-01T18:10:46.754Z,89.86
2023-05-01T18:13:13.703Z,90.67
2023-05-01T18:15:40.504Z,89.71
2023-05-01T18:18:07.387Z,90.77
2023-05-01T18:20:34.246Z,91.45
2023-05-01T18:23:02.127Z,89.84
2023-05-01T18:25:28.969Z,90.38
2023-05-01T18:27:56.480Z,90.42
2023-05-01T18:30:24.027Z,91.65
2023-05-01T18:32:50.943Z,92.31
2023-05-01T18:35:19.139Z,91.79
2023-05-01T18:37:46.694Z,93.24
2023-05-01T18:40:13.898Z,93.44
2023-05-01T18:42:42.233Z,92.10
2023-05-01T18:45:14.274Z,93.79
2023-05-01T18:47:41.280Z,93.00
2023-05-01T18:50:09.525Z,92.77
2023-05-01T18:52:37.324Z,92.91
2023-05-01T18:55:04.504Z,92.48
2023-05-01T18:57:31.902Z,91.61
2023-05-01T19:00:01.412Z,91.16
2023-05-01T19:02:28.739Z,91.02
2023-05-01T19:04:57.810Z,91.89
2023-05-01T19:07:26.623Z,93.69
2023-05-01T19:09:53.577Z,95.07
2023-05-01T19:12:20.526Z,95.49
2023-05-01T19:14:47.424Z,96.92
2023-05-01T19:17:14.429Z,100.00
2023-05-01T19:19:41.279Z,100.00
2023-05-01T19:22:08.384Z,99.43
2023-05-01T19:24:35.213Z,100.00
2023-05-01T19:27:03.506Z,100.00
2023-05-01T19:29:33.967Z,100.00
2023-05-01T19:32:01.214Z,100.00
2023-05-01T19:34:28.904Z,100.00
2023-05-01T19:37:00.411Z,100.00
2023-05-01T19:39:27.506Z,99.14
2023-05-01T19:41:54.387Z,99.73
2023-05-01T19:44:22.261Z,100.00
2023-05-01T19:46:49.296Z,100.00
2023-05-01T19:49:16.211Z,100.00
2023-05-01T19:51:43.203Z,100.00
2023-05-01T19:54:10.045Z,100.00
2023-05-01T19:56:38.658Z,100.00
2023-05-01T19:59:05.855Z,100.00
2023-05-01T20:01:33.698Z,100.00
2023-05-01T20:04:00.698Z,100.00
2023-05-01T20:06:27.895Z,100.00
2023-05-01T20:08:54.794Z,100.00
2023-05-01T20:11:21.626Z,100.00
2023-05-01T20:13:48.470Z,100.00
2023-05-01T20:16:15.386Z,100.00
2023-05-01T20:18:42.641Z,100.00
2023-05-01T20:21:09.576Z,100.00
2023-05-01T20:23:40.339Z,100.00
2023-05-01T20:26:07.481Z,100.00
2023-05-01T20:28:34.342Z,100.00
2023-05-01T20:31:01.958Z,100.00
2023-05-01T20:33:28.911Z,100.00
2023-05-01T20:35:55.752Z,100.00
2023-05-01T20:38:22.794Z,100.00
2023-05-01T20:40:49.625Z,100.00
2023-05-01T20:43:16.497Z,100.00
2023-05-01T20:45:43.351Z,100.00
2023-05-01T20:48:11.473Z,100.00
2023-05-01T20:50:38.446Z,100.00
2023-05-01T20:53:05.300Z,100.00
2023-05-01T20:55:32.134Z,100.00
2023-05-01T20:57:58.988Z,100.00
2023-05-01T21:00:26.076Z,100.00
2023-05-01T21:02:53.205Z,100.00
2023-05-01T21:05:20.370Z,100.00
2023-05-01T21:07:48.498Z,100.00
2023-05-01T21:10:16.831Z,100.00
2023-05-01T21:12:43.751Z,100.00
2023-05-01T21:15:13.759Z,100.00
2023-05-01T21:17:43.502Z,100.00
2023-05-01T21:20:17.410Z,100.00
2023-05-01T21:22:46.348Z,100.00
2023-05-01T21:25:16.308Z,100.00
2023-05-01T21:27:43.254Z,100.00
2023-05-01T21:30:17.917Z,100.00
2023-05-01T21:32:44.899Z,100.00
2023-05-01T21:35:16.590Z,100.00
2023-05-01T21:37:45.006Z,100.00
2023-05-01T21:40:14.692Z,100.00
2023-05-01T21:42:41.722Z,100.00
2023-05-01T21:45:12.729Z,100.00
2023-05-01T21:47:43.615Z,100.00
2023-05-01T21:50:16.242Z,100.00
2023-05-01T21:52:45.488Z,100.00
2023-05-01T21:55:23.617Z,100.00
2023-05-01T21:57:50.515Z,100.00
2023-05-01T22:00:19.401Z,100.00
2023-05-01T22:02:48.864Z,100.00
2023-05-01T22:05:18.573Z,100.00
2023-05-01T22:07:47.182Z,100.00
2023-05-01T22:10:18.841Z,100.00
2023-05-01T22:12:47.069Z,100.00
2023-05-01T22:15:15.767Z,100.00
2023-05-01T22:17:43.338Z,100.00
2023-05-01T22:20:11.084Z,100.00
2023-05-01T22:22:39.916Z,100.00
2023-05-01T22:25:08.154Z,100.00
2023-05-01T22:27:35.591Z,100.00
2023-05-01T22:30:04.130Z,100.00
2023-05-01T22:32:31.378Z,100.00
2023-05-01T22:34:58.278Z,100.00
2023-05-01T22:37:25.933Z,100.00
2023-05-01T22:39:53.846Z,100.00
2023-05-01T22:42:21.086Z,100.00
2023-05-01T22:44:48.513Z,100.00
2023-05-01T22:47:15.513Z,100.00
2023-05-01T22:49:42.729Z,100.00
2023-05-01T22:52:09.564Z,100.00
2023-05-01T22:54:36.416Z,100.00
2023-05-01T22:57:03.362Z,100.00
2023-05-01T22:59:30.326Z,100.00
2023-05-01T23:01:57.364Z,100.00
2023-05-01T23:04:24.390Z,100.00
2023-05-01T23:06:51.291Z,100.00
2023-05-01T23:09:18.225Z,100.00
2023-05-01T23:11:47.706Z,100.00
2023-05-01T23:14:18.216Z,100.00
2023-05-01T23:16:45.160Z,100.00
2023-05-01T23:19:24.140Z,100.00
2023-05-01T23:22:05.691Z,100.00
2023-05-01T23:24:44.531Z,100.00
2023-05-01T23:27:13.587Z,100.00
2023-05-01T23:29:41.122Z,100.00
2023-05-01T23:32:30.602Z,100.00
2023-05-01T23:35:13.063Z,100.00
2023-05-01T23:37:39.947Z,100.00
2023-05-01T23:40:08.400Z,100.00
2023-05-01T23:42:37.830Z,100.00
2023-05-01T23:45:06.858Z,100.00
2023-05-01T23:47:34.334Z,100.00
2023-05-01T23:50:02.103Z,100.00
2023-05-01T23:52:29.246Z,100.00
2023-05-01T23:54:56.159Z,100.00
2023-05-01T23:57:23.044Z,100.00
2023-05-01T23:59:49.942Z,100.00
